sensor_id;sensor_type;location;lat;lon;timestamp;temperature;humidity
76936;DHT22;65881;52.438;16.744;2023-02-12T00:02:18;3.70;99.90
76936;DHT22;65881;52.438;16.744;2023-02-12T00:04:46;3.70;99.90
76936;DHT22;65881;52.438;16.744;2023-02-12T00:07:13;3.70;99.90
76936;DHT22;65881;52.438;16.744;2023-02-12T00:09:39;3.70;99.90
76936;DHT22;65881;52.438;16.744;2023-02-12T00:12:12;3.70;99.90
76936;DHT22;65881;52.438;16.744;2023-02-12T00:14:38;3.70;99.90
76936;DHT22;65881;52.438;16.744;2023-02-12T00:17:04;3.70;99.90
76936;DHT22;65881;52.438;16.744;2023-02-12T00:19:30;3.70;99.90
76936;DHT22;65881;52.438;16.744;2023-02-12T00:21:57;3.70;99.90
76936;DHT22;65881;52.438;16.744;2023-02-12T00:24:23;3.70;99.90
76936;DHT22;65881;52.438;16.744;2023-02-12T00:26:48;3.70;99.90
76936;DHT22;65881;52.438;16.744;2023-02-12T00:29:15;3.70;99.90
76936;DHT22;65881;52.438;16.744;2023-02-12T00:31:41;3.60;99.90
76936;DHT22;65881;52.438;16.744;2023-02-12T00:34:08;3.60;99.90
76936;DHT22;65881;52.438;16.744;2023-02-12T00:36:34;3.60;99.90
76936;DHT22;65881;52.438;16.744;2023-02-12T00:39:06;3.60;99.90
76936;DHT22;65881;52.438;16.744;2023-02-12T00:41:33;3.60;99.90
76936;DHT22;65881;52.438;16.744;2023-02-12T00:43:58;3.60;99.90
76936;DHT22;65881;52.438;16.744;2023-02-12T00:46:24;3.60;99.90
76936;DHT22;65881;52.438;16.744;2023-02-12T00:48:50;3.70;99.90
76936;DHT22;65881;52.438;16.744;2023-02-12T00:51:27;3.70;99.90
76936;DHT22;65881;52.438;16.744;2023-02-12T00:53:56;3.70;99.90
76936;DHT22;65881;52.438;16.744;2023-02-12T00:56:28;3.70;99.90
76936;DHT22;65881;52.438;16.744;2023-02-12T00:58:53;3.70;99.90
76936;DHT22;65881;52.438;16.744;2023-02-12T01:01:19;3.70;99.90
76936;DHT22;65881;52.438;16.744;2023-02-12T01:03:45;3.70;99.90
76936;DHT22;65881;52.438;16.744;2023-02-12T01:06:14;3.70;99.90
76936;DHT22;65881;52.438;16.744;2023-02-12T01:08:39;3.70;99.90
76936;DHT22;65881;52.438;16.744;2023-02-12T01:11:05;3.70;99.90
76936;DHT22;65881;52.438;16.744;2023-02-12T01:13:32;3.70;99.90
76936;DHT22;65881;52.438;16.744;2023-02-12T01:16:27;3.60;99.90
76936;DHT22;65881;52.438;16.744;2023-02-12T01:18:53;3.70;99.90
76936;DHT22;65881;52.438;16.744;2023-02-12T01:21:28;3.60;99.90
76936;DHT22;65881;52.438;16.744;2023-02-12T01:23:55;3.60;99.90
76936;DHT22;65881;52.438;16.744;2023-02-12T01:26:21;3.60;99.90
76936;DHT22;65881;52.438;16.744;2023-02-12T01:28:49;3.60;99.90
76936;DHT22;65881;52.438;16.744;2023-02-12T01:31:19;3.60;99.90
76936;DHT22;65881;52.438;16.744;2023-02-12T01:33:50;3.60;99.90
76936;DHT22;65881;52.438;16.744;2023-02-12T01:36:16;3.60;99.90
76936;DHT22;65881;52.438;16.744;2023-02-12T01:38:42;3.50;99.90
76936;DHT22;65881;52.438;16.744;2023-02-12T01:41:11;3.50;99.90
76936;DHT22;65881;52.438;16.744;2023-02-12T01:43:38;3.50;99.90
76936;DHT22;65881;52.438;16.744;2023-02-12T01:46:05;3.50;99.90
76936;DHT22;65881;52.438;16.744;2023-02-12T01:48:45;3.50;99.90
76936;DHT22;65881;52.438;16.744;2023-02-12T01:51:16;3.50;99.90
76936;DHT22;65881;52.438;16.744;2023-02-12T01:53:48;3.50;99.90
76936;DHT22;65881;52.438;16.744;2023-02-12T01:56:15;3.50;99.90
76936;DHT22;65881;52.438;16.744;2023-02-12T01:58:43;3.50;99.90
76936;DHT22;65881;52.438;16.744;2023-02-12T02:01:18;3.50;99.90
76936;DHT22;65881;52.438;16.744;2023-02-12T02:03:47;3.40;99.90
76936;DHT22;65881;52.438;16.744;2023-02-12T02:06:21;3.40;99.90
76936;DHT22;65881;52.438;16.744;2023-02-12T02:08:53;3.50;99.90
76936;DHT22;65881;52.438;16.744;2023-02-12T02:11:21;3.50;99.90
76936;DHT22;65881;52.438;16.744;2023-02-12T02:14:05;3.50;99.90
76936;DHT22;65881;52.438;16.744;2023-02-12T02:17:02;3.50;99.90
76936;DHT22;65881;52.438;16.744;2023-02-12T02:28:13;3.50;99.90
76936;DHT22;65881;52.438;16.744;2023-02-12T02:33:57;3.50;99.90
76936;DHT22;65881;52.438;16.744;2023-02-12T02:36:44;3.50;99.90
76936;DHT22;65881;52.438;16.744;2023-02-12T02:39:22;3.50;99.90
76936;DHT22;65881;52.438;16.744;2023-02-12T02:41:56;3.50;99.90
76936;DHT22;65881;52.438;16.744;2023-02-12T02:44:36;3.50;99.90
76936;DHT22;65881;52.438;16.744;2023-02-12T02:47:07;3.40;99.90
76936;DHT22;65881;52.438;16.744;2023-02-12T02:49:49;3.40;99.90
76936;DHT22;65881;52.438;16.744;2023-02-12T02:52:19;3.40;99.90
76936;DHT22;65881;52.438;16.744;2023-02-12T02:54:53;3.50;99.90
76936;DHT22;65881;52.438;16.744;2023-02-12T02:57:40;3.50;99.90
76936;DHT22;65881;52.438;16.744;2023-02-12T03:00:15;3.50;99.90
76936;DHT22;65881;52.438;16.744;2023-02-12T03:02:46;3.50;99.90
76936;DHT22;65881;52.438;16.744;2023-02-12T03:05:25;3.50;99.90
76936;DHT22;65881;52.438;16.744;2023-02-12T03:07:57;3.40;99.90
76936;DHT22;65881;52.438;16.744;2023-02-12T03:10:30;3.30;99.90
76936;DHT22;65881;52.438;16.744;2023-02-12T03:13:09;3.30;99.80
76936;DHT22;65881;52.438;16.744;2023-02-12T03:18:27;3.30;99.30
76936;DHT22;65881;52.438;16.744;2023-02-12T03:21:01;3.40;98.80
76936;DHT22;65881;52.438;16.744;2023-02-12T03:23:41;3.30;98.50
76936;DHT22;65881;52.438;16.744;2023-02-12T03:26:13;3.30;98.60
76936;DHT22;65881;52.438;16.744;2023-02-12T03:28:43;3.30;98.30
76936;DHT22;65881;52.438;16.744;2023-02-12T03:31:41;3.30;98.30
76936;DHT22;65881;52.438;16.744;2023-02-12T03:34:17;3.30;98.20
76936;DHT22;65881;52.438;16.744;2023-02-12T03:39:54;3.30;98.20
76936;DHT22;65881;52.438;16.744;2023-02-12T03:53:09;3.30;97.00
76936;DHT22;65881;52.438;16.744;2023-02-12T03:55:39;3.20;96.90
76936;DHT22;65881;52.438;16.744;2023-02-12T03:58:09;3.20;97.20
76936;DHT22;65881;52.438;16.744;2023-02-12T04:00:37;3.20;96.90
76936;DHT22;65881;52.438;16.744;2023-02-12T04:03:05;3.30;96.60
76936;DHT22;65881;52.438;16.744;2023-02-12T04:05:31;3.30;96.30
76936;DHT22;65881;52.438;16.744;2023-02-12T04:07:58;3.20;96.20
76936;DHT22;65881;52.438;16.744;2023-02-12T04:10:42;3.20;96.30
76936;DHT22;65881;52.438;16.744;2023-02-12T04:13:23;3.20;96.40
76936;DHT22;65881;52.438;16.744;2023-02-12T04:16:21;3.20;96.30
76936;DHT22;65881;52.438;16.744;2023-02-12T04:18:48;3.20;96.20
76936;DHT22;65881;52.438;16.744;2023-02-12T04:29:19;3.20;95.00
76936;DHT22;65881;52.438;16.744;2023-02-12T04:39:53;3.00;97.80
76936;DHT22;65881;52.438;16.744;2023-02-12T04:42:20;2.90;98.20
76936;DHT22;65881;52.438;16.744;2023-02-12T04:44:46;2.90;98.40
76936;DHT22;65881;52.438;16.744;2023-02-12T04:47:13;2.90;98.60
76936;DHT22;65881;52.438;16.744;2023-02-12T04:49:39;2.90;98.70
76936;DHT22;65881;52.438;16.744;2023-02-12T04:52:06;2.90;99.00
76936;DHT22;65881;52.438;16.744;2023-02-12T04:54:32;2.90;99.40
76936;DHT22;65881;52.438;16.744;2023-02-12T04:56:58;2.90;99.60
76936;DHT22;65881;52.438;16.744;2023-02-12T04:59:23;2.90;99.90
76936;DHT22;65881;52.438;16.744;2023-02-12T05:01:49;2.90;99.90
76936;DHT22;65881;52.438;16.744;2023-02-12T05:04:16;3.00;99.90
76936;DHT22;65881;52.438;16.744;2023-02-12T05:06:43;2.90;99.90
76936;DHT22;65881;52.438;16.744;2023-02-12T05:09:13;3.00;99.90
76936;DHT22;65881;52.438;16.744;2023-02-12T05:11:40;3.00;99.90
76936;DHT22;65881;52.438;16.744;2023-02-12T05:14:06;3.00;99.90
76936;DHT22;65881;52.438;16.744;2023-02-12T05:16:32;3.00;99.90
76936;DHT22;65881;52.438;16.744;2023-02-12T05:18:58;3.00;99.90
76936;DHT22;65881;52.438;16.744;2023-02-12T05:21:23;3.00;99.90
76936;DHT22;65881;52.438;16.744;2023-02-12T05:23:49;3.00;99.90
76936;DHT22;65881;52.438;16.744;2023-02-12T05:26:20;3.00;99.90
76936;DHT22;65881;52.438;16.744;2023-02-12T05:28:47;2.90;99.90
76936;DHT22;65881;52.438;16.744;2023-02-12T05:31:15;2.90;99.90
76936;DHT22;65881;52.438;16.744;2023-02-12T05:33:43;2.90;99.90
76936;DHT22;65881;52.438;16.744;2023-02-12T05:36:12;2.90;99.90
76936;DHT22;65881;52.438;16.744;2023-02-12T05:38:38;2.90;99.70
76936;DHT22;65881;52.438;16.744;2023-02-12T05:41:09;2.80;99.50
76936;DHT22;65881;52.438;16.744;2023-02-12T05:43:35;2.80;99.50
76936;DHT22;65881;52.438;16.744;2023-02-12T05:46:02;2.80;99.90
76936;DHT22;65881;52.438;16.744;2023-02-12T05:48:29;2.80;99.90
76936;DHT22;65881;52.438;16.744;2023-02-12T05:51:01;2.80;99.90
76936;DHT22;65881;52.438;16.744;2023-02-12T05:53:27;2.80;99.90
76936;DHT22;65881;52.438;16.744;2023-02-12T05:55:53;2.80;99.90
76936;DHT22;65881;52.438;16.744;2023-02-12T05:58:19;2.90;99.90
76936;DHT22;65881;52.438;16.744;2023-02-12T06:00:44;2.90;99.90
76936;DHT22;65881;52.438;16.744;2023-02-12T06:03:10;2.90;99.90
76936;DHT22;65881;52.438;16.744;2023-02-12T06:05:36;2.90;99.90
76936;DHT22;65881;52.438;16.744;2023-02-12T06:08:02;2.80;99.90
76936;DHT22;65881;52.438;16.744;2023-02-12T06:10:27;2.80;99.90
76936;DHT22;65881;52.438;16.744;2023-02-12T06:12:54;2.90;99.90
76936;DHT22;65881;52.438;16.744;2023-02-12T06:15:20;2.80;99.90
76936;DHT22;65881;52.438;16.744;2023-02-12T06:17:45;2.80;99.90
76936;DHT22;65881;52.438;16.744;2023-02-12T06:20:11;2.80;99.90
76936;DHT22;65881;52.438;16.744;2023-02-12T06:22:37;2.80;99.90
76936;DHT22;65881;52.438;16.744;2023-02-12T06:25:03;2.80;99.90
76936;DHT22;65881;52.438;16.744;2023-02-12T06:27:29;2.80;99.90
76936;DHT22;65881;52.438;16.744;2023-02-12T06:29:55;2.80;99.90
76936;DHT22;65881;52.438;16.744;2023-02-12T06:32:21;2.80;99.90
76936;DHT22;65881;52.438;16.744;2023-02-12T06:34:46;2.90;99.90
76936;DHT22;65881;52.438;16.744;2023-02-12T06:37:12;2.80;99.90
76936;DHT22;65881;52.438;16.744;2023-02-12T06:39:39;2.80;99.90
76936;DHT22;65881;52.438;16.744;2023-02-12T06:42:05;2.80;99.90
76936;DHT22;65881;52.438;16.744;2023-02-12T06:44:30;2.80;99.90
76936;DHT22;65881;52.438;16.744;2023-02-12T06:46:56;2.80;99.90
76936;DHT22;65881;52.438;16.744;2023-02-12T06:49:23;2.80;99.90
76936;DHT22;65881;52.438;16.744;2023-02-12T06:51:49;2.80;99.90
76936;DHT22;65881;52.438;16.744;2023-02-12T06:54:16;2.80;99.90
76936;DHT22;65881;52.438;16.744;2023-02-12T06:56:42;2.80;99.90
76936;DHT22;65881;52.438;16.744;2023-02-12T06:59:12;2.90;99.90
76936;DHT22;65881;52.438;16.744;2023-02-12T07:01:38;2.80;99.90
76936;DHT22;65881;52.438;16.744;2023-02-12T07:04:04;2.80;99.90
76936;DHT22;65881;52.438;16.744;2023-02-12T07:06:32;2.80;99.90
76936;DHT22;65881;52.438;16.744;2023-02-12T07:08:59;2.80;99.90
76936;DHT22;65881;52.438;16.744;2023-02-12T07:11:27;2.80;99.90
76936;DHT22;65881;52.438;16.744;2023-02-12T07:13:53;2.80;99.90
76936;DHT22;65881;52.438;16.744;2023-02-12T07:16:19;2.80;99.90
76936;DHT22;65881;52.438;16.744;2023-02-12T07:18:45;2.80;99.90
76936;DHT22;65881;52.438;16.744;2023-02-12T07:21:12;2.80;99.90
76936;DHT22;65881;52.438;16.744;2023-02-12T07:23:38;2.80;99.90
76936;DHT22;65881;52.438;16.744;2023-02-12T07:26:07;2.80;99.90
76936;DHT22;65881;52.438;16.744;2023-02-12T07:28:35;2.90;99.90
76936;DHT22;65881;52.438;16.744;2023-02-12T07:31:09;2.90;99.90
76936;DHT22;65881;52.438;16.744;2023-02-12T07:33:36;3.00;99.90
76936;DHT22;65881;52.438;16.744;2023-02-12T07:36:14;3.00;99.90
76936;DHT22;65881;52.438;16.744;2023-02-12T07:38:41;3.10;99.90
76936;DHT22;65881;52.438;16.744;2023-02-12T07:41:17;3.10;99.90
76936;DHT22;65881;52.438;16.744;2023-02-12T07:43:45;3.10;99.90
76936;DHT22;65881;52.438;16.744;2023-02-12T07:46:19;3.10;99.90
76936;DHT22;65881;52.438;16.744;2023-02-12T07:48:46;3.10;99.90
76936;DHT22;65881;52.438;16.744;2023-02-12T07:51:17;3.10;99.90
76936;DHT22;65881;52.438;16.744;2023-02-12T07:53:47;3.10;99.90
76936;DHT22;65881;52.438;16.744;2023-02-12T07:56:22;3.10;99.90
76936;DHT22;65881;52.438;16.744;2023-02-12T07:58:50;3.10;99.90
76936;DHT22;65881;52.438;16.744;2023-02-12T08:01:24;3.20;99.90
76936;DHT22;65881;52.438;16.744;2023-02-12T08:03:51;3.30;99.90
76936;DHT22;65881;52.438;16.744;2023-02-12T08:06:23;3.50;99.90
76936;DHT22;65881;52.438;16.744;2023-02-12T08:08:54;3.50;99.90
76936;DHT22;65881;52.438;16.744;2023-02-12T08:11:20;3.60;99.90
76936;DHT22;65881;52.438;16.744;2023-02-12T08:13:46;3.60;99.90
76936;DHT22;65881;52.438;16.744;2023-02-12T08:16:14;3.60;99.90
76936;DHT22;65881;52.438;16.744;2023-02-12T08:18:40;3.70;99.90
76936;DHT22;65881;52.438;16.744;2023-02-12T08:21:09;3.60;99.90
76936;DHT22;65881;52.438;16.744;2023-02-12T08:23:35;3.60;99.90
76936;DHT22;65881;52.438;16.744;2023-02-12T08:26:10;3.60;99.90
76936;DHT22;65881;52.438;16.744;2023-02-12T08:28:38;3.60;99.90
76936;DHT22;65881;52.438;16.744;2023-02-12T08:31:07;3.50;99.90
76936;DHT22;65881;52.438;16.744;2023-02-12T08:33:34;3.50;99.90
76936;DHT22;65881;52.438;16.744;2023-02-12T08:36:02;3.50;99.90
76936;DHT22;65881;52.438;16.744;2023-02-12T08:38:29;3.50;99.90
76936;DHT22;65881;52.438;16.744;2023-02-12T08:40:55;3.60;99.90
76936;DHT22;65881;52.438;16.744;2023-02-12T08:43:21;3.60;99.00
76936;DHT22;65881;52.438;16.744;2023-02-12T08:45:47;3.50;98.80
76936;DHT22;65881;52.438;16.744;2023-02-12T08:48:12;3.50;99.10
76936;DHT22;65881;52.438;16.744;2023-02-12T08:50:38;3.50;98.70
76936;DHT22;65881;52.438;16.744;2023-02-12T08:53:04;3.50;98.40
76936;DHT22;65881;52.438;16.744;2023-02-12T08:55:29;3.50;98.30
76936;DHT22;65881;52.438;16.744;2023-02-12T08:57:55;3.50;98.30
76936;DHT22;65881;52.438;16.744;2023-02-12T09:00:22;3.50;98.00
76936;DHT22;65881;52.438;16.744;2023-02-12T09:02:48;3.30;98.00
76936;DHT22;65881;52.438;16.744;2023-02-12T09:05:14;3.30;98.60
76936;DHT22;65881;52.438;16.744;2023-02-12T09:07:40;3.20;99.00
76936;DHT22;65881;52.438;16.744;2023-02-12T09:10:07;3.30;99.00
76936;DHT22;65881;52.438;16.744;2023-02-12T09:12:32;3.30;98.50
76936;DHT22;65881;52.438;16.744;2023-02-12T09:14:58;3.30;98.80
76936;DHT22;65881;52.438;16.744;2023-02-12T09:17:25;3.30;98.70
76936;DHT22;65881;52.438;16.744;2023-02-12T09:19:53;3.30;98.90
76936;DHT22;65881;52.438;16.744;2023-02-12T09:22:18;3.30;98.50
76936;DHT22;65881;52.438;16.744;2023-02-12T09:24:44;3.30;98.70
76936;DHT22;65881;52.438;16.744;2023-02-12T09:27:11;3.30;99.00
76936;DHT22;65881;52.438;16.744;2023-02-12T09:29:37;3.30;98.90
76936;DHT22;65881;52.438;16.744;2023-02-12T09:32:03;3.30;99.20
76936;DHT22;65881;52.438;16.744;2023-02-12T09:34:36;3.20;99.60
76936;DHT22;65881;52.438;16.744;2023-02-12T09:37:02;3.30;99.70
76936;DHT22;65881;52.438;16.744;2023-02-12T09:39:28;3.30;99.50
76936;DHT22;65881;52.438;16.744;2023-02-12T09:50:47;3.50;99.90
76936;DHT22;65881;52.438;16.744;2023-02-12T09:53:19;3.60;99.90
76936;DHT22;65881;52.438;16.744;2023-02-12T09:55:46;3.60;99.90
76936;DHT22;65881;52.438;16.744;2023-02-12T10:00:56;3.80;99.90
76936;DHT22;65881;52.438;16.744;2023-02-12T10:03:22;3.90;99.90
76936;DHT22;65881;52.438;16.744;2023-02-12T10:05:55;3.90;99.90
76936;DHT22;65881;52.438;16.744;2023-02-12T10:27:42;3.90;99.90
76936;DHT22;65881;52.438;16.744;2023-02-12T10:32:49;4.00;99.90
76936;DHT22;65881;52.438;16.744;2023-02-12T10:35:17;4.10;99.90
76936;DHT22;65881;52.438;16.744;2023-02-12T10:37:59;4.10;99.90
76936;DHT22;65881;52.438;16.744;2023-02-12T10:40:29;4.20;99.90
76936;DHT22;65881;52.438;16.744;2023-02-12T10:42:57;4.20;99.90
76936;DHT22;65881;52.438;16.744;2023-02-12T10:45:33;4.20;99.90
76936;DHT22;65881;52.438;16.744;2023-02-12T10:48:16;4.20;99.90
76936;DHT22;65881;52.438;16.744;2023-02-12T10:53:38;4.20;99.90
76936;DHT22;65881;52.438;16.744;2023-02-12T10:58:38;4.20;99.90
76936;DHT22;65881;52.438;16.744;2023-02-12T11:01:19;4.20;99.90
76936;DHT22;65881;52.438;16.744;2023-02-12T11:03:45;4.20;99.90
76936;DHT22;65881;52.438;16.744;2023-02-12T11:06:20;4.20;99.60
76936;DHT22;65881;52.438;16.744;2023-02-12T11:08:48;4.20;99.90
76936;DHT22;65881;52.438;16.744;2023-02-12T11:11:29;4.20;99.20
76936;DHT22;65881;52.438;16.744;2023-02-12T11:14:13;4.30;98.60
76936;DHT22;65881;52.438;16.744;2023-02-12T11:16:55;4.40;98.10
76936;DHT22;65881;52.438;16.744;2023-02-12T11:19:26;4.40;97.20
76936;DHT22;65881;52.438;16.744;2023-02-12T11:22:06;4.40;97.00
76936;DHT22;65881;52.438;16.744;2023-02-12T11:24:34;4.40;96.40
76936;DHT22;65881;52.438;16.744;2023-02-12T11:27:24;4.30;96.50
76936;DHT22;65881;52.438;16.744;2023-02-12T11:30:16;4.40;96.70
76936;DHT22;65881;52.438;16.744;2023-02-12T11:32:42;4.40;96.80
76936;DHT22;65881;52.438;16.744;2023-02-12T11:37:52;4.50;95.90
76936;DHT22;65881;52.438;16.744;2023-02-12T11:40:30;4.40;96.30
76936;DHT22;65881;52.438;16.744;2023-02-12T11:43:03;4.50;96.90
76936;DHT22;65881;52.438;16.744;2023-02-12T11:45:44;4.60;97.00
76936;DHT22;65881;52.438;16.744;2023-02-12T11:50:59;4.80;96.50
76936;DHT22;65881;52.438;16.744;2023-02-12T11:53:41;4.80;96.40
76936;DHT22;65881;52.438;16.744;2023-02-12T11:56:13;4.70;96.20
76936;DHT22;65881;52.438;16.744;2023-02-12T11:58:39;4.70;96.20
76936;DHT22;65881;52.438;16.744;2023-02-12T12:01:10;4.70;96.10
76936;DHT22;65881;52.438;16.744;2023-02-12T12:04:02;4.70;96.40
76936;DHT22;65881;52.438;16.744;2023-02-12T12:09:18;4.70;96.90
76936;DHT22;65881;52.438;16.744;2023-02-12T12:11:46;4.70;97.00
76936;DHT22;65881;52.438;16.744;2023-02-12T12:17:12;4.80;97.40
76936;DHT22;65881;52.438;16.744;2023-02-12T12:20:10;4.90;96.90
76936;DHT22;65881;52.438;16.744;2023-02-12T12:25:51;4.90;96.50
76936;DHT22;65881;52.438;16.744;2023-02-12T12:31:16;4.90;96.50
76936;DHT22;65881;52.438;16.744;2023-02-12T12:34:06;4.90;96.70
76936;DHT22;65881;52.438;16.744;2023-02-12T12:56:41;4.90;97.50
76936;DHT22;65881;52.438;16.744;2023-02-12T13:11:13;4.90;97.30
76936;DHT22;65881;52.438;16.744;2023-02-12T13:13:49;4.90;97.20
76936;DHT22;65881;52.438;16.744;2023-02-12T13:16:38;4.90;97.10
76936;DHT22;65881;52.438;16.744;2023-02-12T13:25:20;4.90;98.00
76936;DHT22;65881;52.438;16.744;2023-02-12T13:27:48;4.90;98.00
76936;DHT22;65881;52.438;16.744;2023-02-12T13:30:22;4.90;97.60
76936;DHT22;65881;52.438;16.744;2023-02-12T13:33:02;4.90;97.00
76936;DHT22;65881;52.438;16.744;2023-02-12T13:35:30;4.90;96.70
76936;DHT22;65881;52.438;16.744;2023-02-12T13:37:58;4.90;97.00
76936;DHT22;65881;52.438;16.744;2023-02-12T13:40:27;4.90;97.20
76936;DHT22;65881;52.438;16.744;2023-02-12T13:43:19;4.80;97.20
76936;DHT22;65881;52.438;16.744;2023-02-12T13:45:59;4.80;97.50
76936;DHT22;65881;52.438;16.744;2023-02-12T13:49:00;4.80;97.60
76936;DHT22;65881;52.438;16.744;2023-02-12T13:54:24;4.70;97.80
76936;DHT22;65881;52.438;16.744;2023-02-12T13:56:56;4.70;97.90
76936;DHT22;65881;52.438;16.744;2023-02-12T14:04:42;4.70;98.40
76936;DHT22;65881;52.438;16.744;2023-02-12T14:07:15;4.70;98.20
76936;DHT22;65881;52.438;16.744;2023-02-12T14:12:36;4.80;97.50
76936;DHT22;65881;52.438;16.744;2023-02-12T14:15:34;4.80;97.30
76936;DHT22;65881;52.438;16.744;2023-02-12T14:20:31;4.80;97.30
76936;DHT22;65881;52.438;16.744;2023-02-12T14:23:24;4.90;96.70
76936;DHT22;65881;52.438;16.744;2023-02-12T14:26:09;4.80;96.50
76936;DHT22;65881;52.438;16.744;2023-02-12T14:29:03;4.80;96.20
76936;DHT22;65881;52.438;16.744;2023-02-12T14:31:33;4.80;96.20
76936;DHT22;65881;52.438;16.744;2023-02-12T14:38:58;4.70;95.70
76936;DHT22;65881;52.438;16.744;2023-02-12T14:41:29;4.70;95.80
76936;DHT22;65881;52.438;16.744;2023-02-12T14:46:55;4.70;96.40
76936;DHT22;65881;52.438;16.744;2023-02-12T14:49:44;4.70;96.60
76936;DHT22;65881;52.438;16.744;2023-02-12T14:54:42;4.60;96.80
76936;DHT22;65881;52.438;16.744;2023-02-12T14:57:11;4.60;96.80
76936;DHT22;65881;52.438;16.744;2023-02-12T14:59:40;4.60;96.80
76936;DHT22;65881;52.438;16.744;2023-02-12T15:02:16;4.60;96.30
76936;DHT22;65881;52.438;16.744;2023-02-12T15:04:44;4.60;96.40
76936;DHT22;65881;52.438;16.744;2023-02-12T15:07:15;4.50;96.40
76936;DHT22;65881;52.438;16.744;2023-02-12T15:09:59;4.50;96.50
76936;DHT22;65881;52.438;16.744;2023-02-12T15:15:48;4.40;96.80
76936;DHT22;65881;52.438;16.744;2023-02-12T15:18:27;4.40;97.00
76936;DHT22;65881;52.438;16.744;2023-02-12T15:21:31;4.40;97.20
76936;DHT22;65881;52.438;16.744;2023-02-12T15:24:11;4.40;97.30
76936;DHT22;65881;52.438;16.744;2023-02-12T15:26:58;4.40;97.50
76936;DHT22;65881;52.438;16.744;2023-02-12T15:31:55;4.30;97.60
76936;DHT22;65881;52.438;16.744;2023-02-12T15:34:24;4.30;97.90
76936;DHT22;65881;52.438;16.744;2023-02-12T15:36:51;4.30;98.00
76936;DHT22;65881;52.438;16.744;2023-02-12T15:39:19;4.30;98.20
76936;DHT22;65881;52.438;16.744;2023-02-12T15:41:47;4.30;98.20
76936;DHT22;65881;52.438;16.744;2023-02-12T15:44:30;4.20;98.10
76936;DHT22;65881;52.438;16.744;2023-02-12T15:49:34;4.20;98.00
76936;DHT22;65881;52.438;16.744;2023-02-12T15:52:05;4.20;97.80
76936;DHT22;65881;52.438;16.744;2023-02-12T15:54:36;4.20;97.80
76936;DHT22;65881;52.438;16.744;2023-02-12T15:57:11;4.20;97.60
76936;DHT22;65881;52.438;16.744;2023-02-12T15:59:42;4.20;97.60
76936;DHT22;65881;52.438;16.744;2023-02-12T16:02:21;4.20;97.70
76936;DHT22;65881;52.438;16.744;2023-02-12T16:04:47;4.10;97.80
76936;DHT22;65881;52.438;16.744;2023-02-12T16:07:14;4.10;97.80
76936;DHT22;65881;52.438;16.744;2023-02-12T16:09:42;4.10;98.00
76936;DHT22;65881;52.438;16.744;2023-02-12T16:12:13;4.10;97.80
76936;DHT22;65881;52.438;16.744;2023-02-12T16:14:52;4.10;97.70
76936;DHT22;65881;52.438;16.744;2023-02-12T16:22:44;4.10;97.20
76936;DHT22;65881;52.438;16.744;2023-02-12T16:28:03;4.10;97.30
76936;DHT22;65881;52.438;16.744;2023-02-12T16:30:39;4.10;97.30
76936;DHT22;65881;52.438;16.744;2023-02-12T16:36:30;4.10;97.20
76936;DHT22;65881;52.438;16.744;2023-02-12T16:39:00;4.10;97.10
76936;DHT22;65881;52.438;16.744;2023-02-12T16:41:31;4.10;97.10
76936;DHT22;65881;52.438;16.744;2023-02-12T16:47:05;4.00;97.10
76936;DHT22;65881;52.438;16.744;2023-02-12T16:49:24;4.10;96.80
76936;DHT22;65881;52.438;16.744;2023-02-12T16:51:51;4.00;96.80
76936;DHT22;65881;52.438;16.744;2023-02-12T16:54:30;4.00;96.90
76936;DHT22;65881;52.438;16.744;2023-02-12T16:56:58;4.00;96.70
76936;DHT22;65881;52.438;16.744;2023-02-12T16:59:25;3.90;96.80
76936;DHT22;65881;52.438;16.744;2023-02-12T17:02:08;3.90;96.80
76936;DHT22;65881;52.438;16.744;2023-02-12T17:04:34;3.90;97.10
76936;DHT22;65881;52.438;16.744;2023-02-12T17:07:03;3.90;97.00
76936;DHT22;65881;52.438;16.744;2023-02-12T17:09:34;3.90;97.00
76936;DHT22;65881;52.438;16.744;2023-02-12T17:12:05;3.90;97.00
76936;DHT22;65881;52.438;16.744;2023-02-12T17:14:31;3.90;97.20
76936;DHT22;65881;52.438;16.744;2023-02-12T17:16:56;3.90;97.10
76936;DHT22;65881;52.438;16.744;2023-02-12T17:19:22;4.00;97.00
76936;DHT22;65881;52.438;16.744;2023-02-12T17:21:48;3.90;96.90
76936;DHT22;65881;52.438;16.744;2023-02-12T17:24:25;4.00;97.10
76936;DHT22;65881;52.438;16.744;2023-02-12T17:26:51;4.00;97.00
76936;DHT22;65881;52.438;16.744;2023-02-12T17:29:19;4.00;97.00
76936;DHT22;65881;52.438;16.744;2023-02-12T17:31:45;4.10;97.50
76936;DHT22;65881;52.438;16.744;2023-02-12T17:34:12;4.00;96.90
76936;DHT22;65881;52.438;16.744;2023-02-12T17:36:45;4.00;97.20
76936;DHT22;65881;52.438;16.744;2023-02-12T17:39:12;4.10;97.30
76936;DHT22;65881;52.438;16.744;2023-02-12T17:41:38;4.00;97.50
76936;DHT22;65881;52.438;16.744;2023-02-12T17:44:06;4.00;97.80
76936;DHT22;65881;52.438;16.744;2023-02-12T17:46:32;4.00;98.10
76936;DHT22;65881;52.438;16.744;2023-02-12T17:48:58;4.00;98.10
76936;DHT22;65881;52.438;16.744;2023-02-12T17:51:24;4.00;98.20
76936;DHT22;65881;52.438;16.744;2023-02-12T17:53:50;4.00;98.30
76936;DHT22;65881;52.438;16.744;2023-02-12T17:56:19;4.00;98.40
76936;DHT22;65881;52.438;16.744;2023-02-12T17:58:46;4.00;98.50
76936;DHT22;65881;52.438;16.744;2023-02-12T18:01:15;4.00;98.50
76936;DHT22;65881;52.438;16.744;2023-02-12T18:03:42;4.00;98.50
76936;DHT22;65881;52.438;16.744;2023-02-12T18:06:08;4.00;98.40
76936;DHT22;65881;52.438;16.744;2023-02-12T18:08:35;4.00;98.60
76936;DHT22;65881;52.438;16.744;2023-02-12T18:11:05;4.00;98.70
76936;DHT22;65881;52.438;16.744;2023-02-12T18:13:31;4.00;98.90
76936;DHT22;65881;52.438;16.744;2023-02-12T18:15:57;4.00;99.10
76936;DHT22;65881;52.438;16.744;2023-02-12T18:18:23;4.00;99.20
76936;DHT22;65881;52.438;16.744;2023-02-12T18:20:49;4.00;99.60
76936;DHT22;65881;52.438;16.744;2023-02-12T18:23:14;4.00;99.70
76936;DHT22;65881;52.438;16.744;2023-02-12T18:25:42;4.00;99.70
76936;DHT22;65881;52.438;16.744;2023-02-12T18:28:08;4.00;99.80
76936;DHT22;65881;52.438;16.744;2023-02-12T18:30:35;4.00;99.90
76936;DHT22;65881;52.438;16.744;2023-02-12T18:33:04;4.00;99.90
76936;DHT22;65881;52.438;16.744;2023-02-12T18:35:30;4.00;99.90
76936;DHT22;65881;52.438;16.744;2023-02-12T18:37:56;4.00;99.90
76936;DHT22;65881;52.438;16.744;2023-02-12T18:40:22;4.00;99.90
76936;DHT22;65881;52.438;16.744;2023-02-12T18:42:50;3.90;99.90
76936;DHT22;65881;52.438;16.744;2023-02-12T18:45:15;3.90;99.90
76936;DHT22;65881;52.438;16.744;2023-02-12T18:47:41;3.90;99.90
76936;DHT22;65881;52.438;16.744;2023-02-12T18:50:07;3.90;99.90
76936;DHT22;65881;52.438;16.744;2023-02-12T18:52:33;3.90;99.90
76936;DHT22;65881;52.438;16.744;2023-02-12T18:55:00;3.90;99.90
76936;DHT22;65881;52.438;16.744;2023-02-12T18:57:25;3.90;99.90